Time;durP1;ratioP1;P1;durP2;ratioP2;P2;SDS_P1;SDS_P2;PMS_P1;PMS_P2;Temp;Humidity;BMP_temperature;BMP_pressure;BME280_temperature;BME280_humidity;BME280_pressure;Samples;Min_cycle;Max_cycle;Signal;HPM_P1;HPM_P2
2022/07/31 00:01:59;;;;;;;6.72;1.80;;;19.10;99.30;;;;;;5055031;28;37215;-58
2022/07/31 00:04:28;;;;;;;4.93;1.65;;;19.00;99.40;;;;;;5054000;28;37111;-58
2022/07/31 00:06:55;;;;;;;5.78;2.00;;;19.00;99.50;;;;;;5056104;28;37492;-58
2022/07/31 00:09:22;;;;;;;4.60;1.50;;;19.00;99.70;;;;;;5056012;28;36329;-58
2022/07/31 00:11:50;;;;;;;4.20;1.63;;;19.00;99.70;;;;;;5054183;28;37640;-58
2022/07/31 00:14:17;;;;;;;7.05;1.85;;;19.00;99.70;;;;;;5057438;28;36565;-58
2022/07/31 00:16:44;;;;;;;9.30;1.92;;;19.00;99.70;;;;;;5054771;28;36211;-58
2022/07/31 00:19:11;;;;;;;5.63;1.80;;;19.00;99.70;;;;;;5056928;28;37674;-58
2022/07/31 00:21:40;;;;;;;5.50;2.08;;;19.10;99.60;;;;;;5054731;28;37100;-58
2022/07/31 00:24:07;;;;;;;7.22;2.50;;;19.10;99.60;;;;;;5056090;28;36445;-58
2022/07/31 00:26:35;;;;;;;7.10;2.72;;;19.10;99.50;;;;;;5055477;28;37239;-58
2022/07/31 00:29:02;;;;;;;4.28;2.40;;;19.10;99.40;;;;;;5056889;28;38737;-58
2022/07/31 00:31:29;;;;;;;5.57;2.33;;;19.10;99.10;;;;;;5055317;28;37795;-58
2022/07/31 00:33:57;;;;;;;7.35;2.65;;;19.10;99.20;;;;;;5052382;28;36915;-58
2022/07/31 00:36:25;;;;;;;7.10;2.88;;;19.10;99.10;;;;;;5055677;28;36455;-58
2022/07/31 00:38:53;;;;;;;6.97;2.03;;;19.10;99.10;;;;;;5052804;28;36374;-58
2022/07/31 00:41:20;;;;;;;8.30;2.95;;;19.00;99.30;;;;;;5055629;28;36128;-58
2022/07/31 00:43:48;;;;;;;8.43;2.28;;;19.00;99.40;;;;;;5054948;28;36692;-58
2022/07/31 00:46:15;;;;;;;6.00;2.35;;;19.00;99.70;;;;;;5055791;28;37763;-58
2022/07/31 00:48:43;;;;;;;5.13;2.28;;;18.90;99.80;;;;;;5055138;28;36418;-59
2022/07/31 00:51:11;;;;;;;5.47;2.10;;;18.90;99.90;;;;;;5056022;28;20178;-58
2022/07/31 00:53:38;;;;;;;4.40;2.30;;;18.80;99.90;;;;;;5052892;28;36867;-58
2022/07/31 00:56:07;;;;;;;7.75;2.53;;;18.90;99.90;;;;;;5052637;28;37457;-58
2022/07/31 00:58:34;;;;;;;4.60;2.42;;;18.70;99.90;;;;;;5055237;28;37946;-58
2022/07/31 01:01:02;;;;;;;7.97;1.80;;;18.70;99.90;;;;;;5053445;28;37342;-58
2022/07/31 01:03:29;;;;;;;4.75;2.22;;;18.70;99.90;;;;;;5052027;28;36102;-58
2022/07/31 01:05:56;;;;;;;9.20;2.58;;;18.70;99.90;;;;;;5056572;28;37176;-58
2022/07/31 01:08:24;;;;;;;5.25;2.63;;;18.70;99.90;;;;;;5054168;28;37884;-58
2022/07/31 01:10:59;;;;;;;7.03;2.50;;;18.70;99.90;;;;;;5054117;28;38430;-58
2022/07/31 01:13:35;;;;;;;3.78;2.15;;;18.70;99.90;;;;;;5054566;28;37629;-58
2022/07/31 01:16:04;;;;;;;6.75;2.10;;;18.70;99.90;;;;;;5055950;28;37406;-58
2022/07/31 01:18:37;;;;;;;4.35;2.45;;;18.70;99.90;;;;;;5049053;28;39539;-58
2022/07/31 01:21:07;;;;;;;6.25;2.40;;;18.60;99.90;;;;;;5055167;28;38310;-58
2022/07/31 01:23:56;;;;;;;9.30;2.53;;;18.60;99.90;;;;;;5053180;28;36449;-58
2022/07/31 01:26:35;;;;;;;5.38;2.35;;;18.60;99.90;;;;;;5052744;28;36293;-58
2022/07/31 01:29:14;;;;;;;6.97;2.70;;;18.60;99.90;;;;;;5055034;28;38606;-58
2022/07/31 01:31:46;;;;;;;4.82;2.20;;;18.50;99.90;;;;;;5053057;28;37636;-58
2022/07/31 01:34:23;;;;;;;8.50;2.63;;;18.50;99.90;;;;;;5053027;28;35432;-58
2022/07/31 01:36:56;;;;;;;5.47;2.30;;;18.50;99.90;;;;;;5053843;28;37274;-58
2022/07/31 01:39:25;;;;;;;5.80;2.40;;;18.50;99.90;;;;;;5054676;28;38594;-58
2022/07/31 01:41:54;;;;;;;5.95;2.72;;;18.60;99.90;;;;;;5055002;28;37471;-58
2022/07/31 01:44:26;;;;;;;6.05;2.30;;;18.60;99.90;;;;;;5055574;28;35838;-58
2022/07/31 01:46:57;;;;;;;9.40;3.22;;;18.70;99.90;;;;;;5055586;28;37370;-58
2022/07/31 01:49:26;;;;;;;6.90;2.65;;;18.70;99.90;;;;;;5054611;28;37899;-58
2022/07/31 01:51:55;;;;;;;5.15;2.72;;;18.70;99.90;;;;;;5053426;28;36097;-59
2022/07/31 01:54:23;;;;;;;7.55;2.90;;;18.70;99.90;;;;;;5054956;28;35230;-58
2022/07/31 01:56:52;;;;;;;6.85;2.97;;;18.70;99.90;;;;;;5054106;28;38189;-58
2022/07/31 01:59:20;;;;;;;5.15;2.60;;;18.70;99.90;;;;;;5052115;28;36562;-58
2022/07/31 02:01:51;;;;;;;8.93;3.10;;;18.70;99.90;;;;;;5053871;28;36105;-58
2022/07/31 02:04:19;;;;;;;7.38;2.45;;;18.80;99.90;;;;;;5053412;28;36801;-58
2022/07/31 02:06:47;;;;;;;7.75;2.90;;;18.80;99.90;;;;;;5053560;28;37630;-58
2022/07/31 02:09:17;;;;;;;9.07;2.85;;;18.80;99.90;;;;;;5054393;28;38727;-58
2022/07/31 02:11:45;;;;;;;5.60;2.20;;;18.80;99.90;;;;;;5054605;28;37230;-58
2022/07/31 02:14:13;;;;;;;9.35;2.72;;;18.80;99.90;;;;;;5055268;28;37444;-58
2022/07/31 02:16:41;;;;;;;6.90;2.67;;;18.80;99.90;;;;;;5050282;28;38248;-58
2022/07/31 02:19:10;;;;;;;5.40;2.72;;;18.80;99.90;;;;;;5051962;28;38337;-58
2022/07/31 02:21:38;;;;;;;8.50;3.20;;;18.90;99.80;;;;;;5052121;28;37745;-58
2022/07/31 02:24:06;;;;;;;6.95;2.88;;;18.90;99.70;;;;;;5054804;28;37584;-58
2022/07/31 02:26:34;;;;;;;5.70;2.45;;;18.90;99.70;;;;;;5053580;28;38237;-58
2022/07/31 02:29:03;;;;;;;5.13;2.22;;;18.90;99.60;;;;;;5055252;28;37507;-58
2022/07/31 02:31:32;;;;;;;5.15;2.35;;;18.90;99.50;;;;;;5053322;28;37317;-58
2022/07/31 02:34:00;;;;;;;6.03;2.63;;;18.90;99.50;;;;;;5050993;28;36412;-58
2022/07/31 02:36:32;;;;;;;6.72;2.28;;;18.90;99.40;;;;;;5057481;28;37725;-58
2022/07/31 02:39:00;;;;;;;5.18;2.42;;;19.00;99.30;;;;;;5058078;28;37621;-58
2022/07/31 02:41:28;;;;;;;5.82;2.70;;;19.00;99.30;;;;;;5055783;28;37830;-58
2022/07/31 02:43:56;;;;;;;3.45;1.80;;;19.00;99.10;;;;;;5056740;28;36416;-58
2022/07/31 02:46:24;;;;;;;6.03;2.40;;;19.00;99.00;;;;;;5056820;28;36218;-58
2022/07/31 02:48:52;;;;;;;5.88;2.55;;;19.00;99.00;;;;;;5052186;28;38162;-58
2022/07/31 02:51:20;;;;;;;5.20;2.40;;;19.00;98.90;;;;;;5056755;28;37987;-58
2022/07/31 02:53:49;;;;;;;6.32;2.63;;;19.00;98.80;;;;;;5058072;28;36514;-58
2022/07/31 02:56:17;;;;;;;6.05;2.42;;;19.00;98.60;;;;;;5058296;28;37829;-58
2022/07/31 02:58:44;;;;;;;4.80;2.50;;;19.00;98.60;;;;;;5056169;28;39407;-58
2022/07/31 03:01:13;;;;;;;6.10;2.40;;;19.00;98.70;;;;;;5056274;28;39638;-58
2022/07/31 03:03:40;;;;;;;5.55;2.65;;;19.00;98.70;;;;;;5054920;28;35306;-58
2022/07/31 03:06:07;;;;;;;6.43;2.70;;;19.00;98.70;;;;;;5058056;28;37662;-58
2022/07/31 03:08:34;;;;;;;8.45;2.60;;;19.00;98.70;;;;;;5055225;28;37328;-58
2022/07/31 03:11:03;;;;;;;5.07;2.50;;;19.00;98.80;;;;;;5057220;28;36757;-58
2022/07/31 03:13:33;;;;;;;5.25;2.58;;;19.00;99.00;;;;;;5055101;28;36533;-58
2022/07/31 03:16:01;;;;;;;6.38;2.50;;;19.00;99.20;;;;;;5056250;28;38549;-58
2022/07/31 03:18:31;;;;;;;5.57;2.67;;;18.90;99.30;;;;;;5056615;28;38380;-58
2022/07/31 03:20:58;;;;;;;4.43;2.42;;;18.90;99.50;;;;;;5058104;28;38469;-59
2022/07/31 03:23:34;;;;;;;5.75;1.90;;;18.90;99.50;;;;;;5057113;28;36677;-58
2022/07/31 03:26:04;;;;;;;7.85;2.40;;;18.90;99.40;;;;;;5056420;28;39719;-58
2022/07/31 03:28:33;;;;;;;3.65;2.17;;;18.80;99.40;;;;;;5054539;28;37209;-58
2022/07/31 03:31:00;;;;;;;5.88;2.28;;;18.80;99.40;;;;;;5058556;28;37289;-61
2022/07/31 03:33:27;;;;;;;6.05;2.33;;;18.80;99.40;;;;;;5053872;28;36710;-59
2022/07/31 03:35:55;;;;;;;5.63;2.22;;;18.80;99.40;;;;;;5057492;28;37428;-58
2022/07/31 03:38:22;;;;;;;4.82;2.42;;;18.80;99.30;;;;;;5056539;28;38152;-58
2022/07/31 03:40:50;;;;;;;4.05;2.13;;;18.70;99.40;;;;;;5056000;28;39813;-59
2022/07/31 03:43:20;;;;;;;5.20;2.50;;;18.70;99.30;;;;;;5056193;28;36653;-58
2022/07/31 03:45:48;;;;;;;6.13;2.10;;;18.70;99.30;;;;;;5056183;28;37614;-58
2022/07/31 03:48:15;;;;;;;5.43;2.47;;;18.70;99.30;;;;;;5054410;28;37591;-58
2022/07/31 03:50:44;;;;;;;5.05;2.33;;;18.70;99.20;;;;;;5056743;28;37446;-58
2022/07/31 03:53:11;;;;;;;3.70;2.03;;;18.70;99.20;;;;;;5057076;28;37559;-58
2022/07/31 03:55:41;;;;;;;4.03;2.42;;;18.70;99.30;;;;;;5057575;28;37364;-58
2022/07/31 03:58:09;;;;;;;5.93;2.80;;;18.60;99.50;;;;;;5055904;28;37849;-58
2022/07/31 04:00:38;;;;;;;5.68;2.15;;;18.70;99.40;;;;;;5057611;28;37746;-58
2022/07/31 04:03:08;;;;;;;5.70;2.35;;;18.60;99.40;;;;;;5056906;28;37412;-58
2022/07/31 04:05:35;;;;;;;3.58;2.00;;;18.60;99.50;;;;;;5057462;28;36633;-58
2022/07/31 04:08:03;;;;;;;8.13;2.50;;;18.60;99.60;;;;;;5052631;28;38250;-58
2022/07/31 04:10:30;;;;;;;7.50;2.47;;;18.60;99.60;;;;;;5057236;28;38410;-58
2022/07/31 04:12:58;;;;;;;5.13;2.28;;;18.60;99.70;;;;;;5056936;28;36719;-58
2022/07/31 04:15:25;;;;;;;5.85;2.45;;;18.60;99.90;;;;;;5057248;28;38044;-61
2022/07/31 04:17:54;;;;;;;7.25;2.28;;;18.60;99.80;;;;;;5054968;28;38129;-58
2022/07/31 04:20:21;;;;;;;6.28;2.40;;;18.60;99.70;;;;;;5058081;28;38234;-58
2022/07/31 04:22:49;;;;;;;4.53;2.60;;;18.60;99.80;;;;;;5055312;28;37126;-58
2022/07/31 04:25:17;;;;;;;4.85;2.35;;;18.60;99.90;;;;;;5055919;28;36479;-58
2022/07/31 04:27:44;;;;;;;6.95;2.60;;;18.50;99.60;;;;;;5056887;28;38282;-58
2022/07/31 04:30:12;;;;;;;3.95;2.28;;;18.60;99.70;;;;;;5056311;28;37346;-59
2022/07/31 04:32:40;;;;;;;7.05;2.67;;;18.60;99.80;;;;;;5055881;28;36324;-58
2022/07/31 04:35:10;;;;;;;9.98;2.90;;;18.60;99.80;;;;;;5055689;28;37970;-58
2022/07/31 04:37:37;;;;;;;6.43;2.67;;;18.60;99.70;;;;;;5055108;28;37865;-58
2022/07/31 04:40:05;;;;;;;5.93;2.83;;;18.70;99.70;;;;;;5055443;28;37199;-58
2022/07/31 04:42:33;;;;;;;9.13;2.63;;;18.70;99.40;;;;;;5057467;28;37463;-59
2022/07/31 04:45:00;;;;;;;8.27;2.85;;;18.70;99.30;;;;;;5057280;28;39023;-58
2022/07/31 04:47:27;;;;;;;6.90;2.72;;;18.80;99.10;;;;;;5054810;28;37461;-58
2022/07/31 04:49:55;;;;;;;6.25;2.97;;;18.80;99.00;;;;;;5055575;28;37781;-58
2022/07/31 04:52:23;;;;;;;7.50;3.05;;;18.80;98.90;;;;;;5054051;28;36624;-58
2022/07/31 04:54:51;;;;;;;6.43;2.90;;;18.80;98.80;;;;;;5057341;28;37608;-58
2022/07/31 04:57:18;;;;;;;5.22;2.88;;;18.80;98.70;;;;;;5055721;28;37281;-58
2022/07/31 04:59:45;;;;;;;7.70;2.67;;;18.80;98.60;;;;;;5054052;28;37488;-58
2022/07/31 05:02:13;;;;;;;6.20;2.72;;;18.80;98.60;;;;;;5054126;28;36334;-58
2022/07/31 05:04:40;;;;;;;5.05;2.55;;;18.80;98.60;;;;;;5054509;28;38027;-58
2022/07/31 05:07:07;;;;;;;5.32;2.78;;;18.90;98.60;;;;;;5055131;28;38739;-58
2022/07/31 05:09:36;;;;;;;7.43;2.72;;;18.90;98.50;;;;;;5054550;28;40279;-58
2022/07/31 05:12:03;;;;;;;5.00;3.00;;;18.90;98.50;;;;;;5056227;28;35392;-58
2022/07/31 05:14:31;;;;;;;5.93;2.85;;;18.90;98.40;;;;;;5053736;28;36955;-58
2022/07/31 05:16:58;;;;;;;5.93;2.70;;;18.90;98.40;;;;;;5056461;28;38355;-58
2022/07/31 05:19:28;;;;;;;8.82;3.30;;;18.90;98.30;;;;;;5054229;28;37183;-58
2022/07/31 05:21:58;;;;;;;6.32;3.10;;;18.90;98.30;;;;;;5055976;28;36423;-58
2022/07/31 05:24:25;;;;;;;4.70;2.80;;;18.90;98.40;;;;;;5055539;28;37502;-58
2022/07/31 05:26:54;;;;;;;7.35;2.78;;;18.90;98.70;;;;;;5054972;28;37498;-58
2022/07/31 05:29:21;;;;;;;5.70;3.13;;;18.90;99.00;;;;;;5052492;28;38314;-58
2022/07/31 05:31:49;;;;;;;8.75;3.70;;;18.90;98.70;;;;;;5054066;28;36595;-58
2022/07/31 05:34:16;;;;;;;6.05;3.30;;;18.90;98.70;;;;;;5056066;28;37160;-58
2022/07/31 05:36:43;;;;;;;9.02;3.33;;;19.00;99.00;;;;;;5055447;28;39228;-58
2022/07/31 05:39:11;;;;;;;6.70;3.28;;;19.00;99.00;;;;;;5049783;28;36223;-58
2022/07/31 05:41:38;;;;;;;7.28;2.70;;;19.00;99.20;;;;;;5053911;28;35949;-58
2022/07/31 05:44:07;;;;;;;5.78;3.50;;;19.00;99.10;;;;;;5053746;28;37436;-58
2022/07/31 05:46:34;;;;;;;5.82;3.20;;;19.00;99.20;;;;;;5055000;28;38995;-58
2022/07/31 05:49:02;;;;;;;13.00;3.90;;;19.00;99.20;;;;;;5051692;28;37206;-58
2022/07/31 05:51:29;;;;;;;8.52;3.33;;;19.00;99.20;;;;;;5053082;28;37236;-58
2022/07/31 05:53:56;;;;;;;5.53;3.00;;;19.00;99.40;;;;;;5054517;28;38598;-58
2022/07/31 05:56:24;;;;;;;8.18;3.10;;;19.00;99.30;;;;;;5055142;28;37397;-58
2022/07/31 05:58:52;;;;;;;8.32;3.22;;;19.10;99.40;;;;;;5053638;28;37307;-58
2022/07/31 06:01:21;;;;;;;6.68;3.30;;;19.00;99.40;;;;;;5054018;28;37623;-57
2022/07/31 06:03:48;;;;;;;7.03;2.90;;;19.10;99.40;;;;;;5054124;28;38025;-58
2022/07/31 06:06:15;;;;;;;6.05;3.25;;;19.20;99.50;;;;;;5053196;28;39061;-58
2022/07/31 06:08:43;;;;;;;7.68;3.00;;;19.10;99.50;;;;;;5052283;28;40963;-58
2022/07/31 06:11:10;;;;;;;5.47;3.17;;;19.20;99.50;;;;;;5056558;28;36551;-58
2022/07/31 06:13:37;;;;;;;6.55;3.08;;;19.20;99.90;;;;;;5058762;28;38078;-58
2022/07/31 06:16:11;;;;;;;8.38;3.05;;;19.20;99.80;;;;;;5058958;28;37145;-58
2022/07/31 06:18:39;;;;;;;;;;;19.30;99.80;;;;;;5051003;28;38624;-58
2022/07/31 06:21:06;;;;;;;4.65;2.92;;;19.30;99.70;;;;;;5056435;28;36240;-58
2022/07/31 06:23:34;;;;;;;6.88;3.60;;;19.30;99.60;;;;;;5058449;28;36048;-58
2022/07/31 06:26:01;;;;;;;6.93;3.35;;;19.30;99.40;;;;;;5057464;28;37973;-58
2022/07/31 06:28:28;;;;;;;11.57;3.10;;;19.40;99.60;;;;;;5056173;28;37071;-58
2022/07/31 06:30:56;;;;;;;4.97;3.30;;;19.40;99.40;;;;;;5058730;28;38129;-58
2022/07/31 06:33:23;;;;;;;8.88;3.63;;;19.50;99.40;;;;;;5054288;28;37959;-58
2022/07/31 06:35:52;;;;;;;6.55;3.28;;;19.50;99.30;;;;;;5055851;28;36352;-58
2022/07/31 06:38:23;;;;;;;11.07;3.95;;;19.50;99.40;;;;;;5052937;28;38395;-58
2022/07/31 06:40:50;;;;;;;7.05;3.20;;;19.60;99.40;;;;;;5056026;28;37342;-58
2022/07/31 06:43:18;;;;;;;7.60;3.30;;;19.60;99.60;;;;;;5055844;28;38024;-58
2022/07/31 06:45:45;;;;;;;6.40;3.00;;;19.70;99.30;;;;;;5058145;28;38651;-59
2022/07/31 06:48:14;;;;;;;11.18;3.42;;;19.70;99.30;;;;;;5056190;28;38543;-58
2022/07/31 06:50:41;;;;;;;6.75;2.75;;;19.70;99.30;;;;;;5056700;28;35268;-58
2022/07/31 06:53:10;;;;;;;8.88;3.83;;;19.80;99.30;;;;;;5052789;28;38075;-58
2022/07/31 06:55:37;;;;;;;5.85;3.15;;;19.80;99.40;;;;;;5055550;28;38346;-59
2022/07/31 06:58:04;;;;;;;6.47;3.55;;;19.80;99.40;;;;;;5056415;28;36252;-58
2022/07/31 07:00:32;;;;;;;6.47;3.42;;;19.80;99.40;;;;;;5056829;28;35915;-58
2022/07/31 07:02:59;;;;;;;8.10;4.00;;;19.80;99.30;;;;;;5052641;28;37568;-58
2022/07/31 07:05:27;;;;;;;6.82;3.30;;;19.90;99.40;;;;;;5055191;28;36579;-58
2022/07/31 07:07:54;;;;;;;5.55;3.25;;;19.90;99.60;;;;;;5054907;28;36700;-58
2022/07/31 07:10:23;;;;;;;7.70;3.47;;;19.90;99.70;;;;;;5055720;28;36711;-59
2022/07/31 07:12:50;;;;;;;7.30;3.70;;;19.90;99.60;;;;;;5052463;28;37268;-58
2022/07/31 07:15:18;;;;;;;8.40;3.47;;;19.90;99.30;;;;;;5033847;28;36335;-59
2022/07/31 07:17:45;;;;;;;6.25;3.50;;;19.90;99.10;;;;;;5032712;28;39193;-58
2022/07/31 07:20:13;;;;;;;7.82;3.60;;;20.00;99.10;;;;;;5031344;28;37410;-58
2022/07/31 07:22:40;;;;;;;7.07;4.07;;;19.90;99.00;;;;;;5031611;28;36539;-59
2022/07/31 07:25:08;;;;;;;6.15;3.88;;;20.00;99.00;;;;;;5031237;28;37861;-58
2022/07/31 07:27:37;;;;;;;8.07;4.63;;;20.00;99.00;;;;;;5028458;28;37405;-58
2022/07/31 07:30:06;;;;;;;8.73;4.50;;;20.00;99.00;;;;;;5031202;28;36090;-59
2022/07/31 07:32:33;;;;;;;8.07;4.10;;;20.10;99.20;;;;;;5026016;28;38840;-59
2022/07/31 07:35:02;;;;;;;7.07;3.67;;;20.10;99.20;;;;;;5026876;28;38122;-59
2022/07/31 07:37:30;;;;;;;8.10;4.20;;;20.10;99.10;;;;;;5021740;28;39754;-58
2022/07/31 07:39:58;;;;;;;7.15;4.13;;;20.10;99.10;;;;;;5028824;28;36813;-59
2022/07/31 07:42:26;;;;;;;7.63;4.50;;;20.10;99.40;;;;;;5028752;28;37823;-59
2022/07/31 07:44:54;;;;;;;8.85;4.25;;;20.20;99.80;;;;;;5028806;28;36461;-58
2022/07/31 07:47:21;;;;;;;9.27;3.78;;;20.20;99.50;;;;;;5028920;28;37928;-59
2022/07/31 07:49:49;;;;;;;8.30;4.90;;;20.30;99.40;;;;;;5032744;28;36386;-58
2022/07/31 07:52:17;;;;;;;9.63;4.68;;;20.30;99.40;;;;;;5028733;28;36291;-59
2022/07/31 07:54:44;;;;;;;9.80;4.75;;;20.40;99.40;;;;;;5029838;28;36629;-59
2022/07/31 07:57:14;;;;;;;9.40;3.85;;;20.50;99.30;;;;;;5026546;28;37598;-59
2022/07/31 07:59:42;;;;;;;9.30;3.95;;;20.60;99.40;;;;;;5030899;28;36448;-59
2022/07/31 08:02:12;;;;;;;8.75;4.20;;;20.70;99.40;;;;;;5027949;28;37555;-58
2022/07/31 08:04:39;;;;;;;7.10;4.45;;;20.70;99.50;;;;;;5027157;28;38776;-59
2022/07/31 08:07:07;;;;;;;8.32;4.05;;;20.80;99.40;;;;;;5023900;28;37404;-59
2022/07/31 08:09:35;;;;;;;8.48;4.60;;;20.80;99.50;;;;;;5030988;28;38118;-59
2022/07/31 08:12:04;;;;;;;9.73;4.82;;;20.80;99.70;;;;;;5030522;28;39436;-59
2022/07/31 08:14:31;;;;;;;6.68;4.18;;;20.80;99.50;;;;;;5031990;28;37970;-58
2022/07/31 08:16:59;;;;;;;11.65;5.28;;;20.80;99.60;;;;;;5030053;28;37836;-59
2022/07/31 08:19:28;;;;;;;10.40;5.10;;;20.80;99.90;;;;;;5029148;28;38332;-59
2022/07/31 08:21:55;;;;;;;11.68;5.32;;;20.80;99.90;;;;;;5030992;28;38288;-59
2022/07/31 08:24:23;;;;;;;9.02;4.95;;;20.80;99.90;;;;;;5033552;28;37886;-58
2022/07/31 08:29:35;;;;;;;9.02;4.72;;;20.80;99.90;;;;;;5034404;28;36386;-59
2022/07/31 08:32:02;;;;;;;10.77;5.57;;;20.80;99.90;;;;;;5029963;28;38363;-58
2022/07/31 08:34:31;;;;;;;8.95;4.68;;;20.80;99.90;;;;;;5030160;28;38474;-59
2022/07/31 08:36:58;;;;;;;10.73;5.10;;;20.80;99.90;;;;;;5033949;28;37460;-59
2022/07/31 08:39:26;;;;;;;8.57;5.38;;;20.90;99.90;;;;;;5027869;28;36498;-59
2022/07/31 08:41:53;;;;;;;12.02;6.05;;;20.90;99.90;;;;;;5032679;28;37332;-59
2022/07/31 08:44:20;;;;;;;10.43;5.78;;;20.90;99.90;;;;;;5033983;28;36442;-59
2022/07/31 08:46:49;;;;;;;10.10;5.82;;;20.90;99.90;;;;;;5031474;28;37646;-59
2022/07/31 08:49:17;;;;;;;9.38;6.50;;;20.90;99.90;;;;;;5033778;28;36918;-59
2022/07/31 08:51:46;;;;;;;12.00;7.15;;;20.90;99.90;;;;;;5028286;28;38803;-59
2022/07/31 08:54:14;;;;;;;12.18;7.13;;;20.90;99.90;;;;;;5034540;28;37142;-59
2022/07/31 08:56:41;;;;;;;14.00;7.30;;;20.80;99.90;;;;;;5031269;28;37156;-59
2022/07/31 08:59:09;;;;;;;10.90;7.57;;;20.80;99.90;;;;;;5032370;28;37498;-58
2022/07/31 09:01:37;;;;;;;11.43;7.75;;;20.70;99.90;;;;;;5032606;28;38278;-59
2022/07/31 09:04:05;;;;;;;11.35;7.72;;;20.70;99.90;;;;;;5033655;28;37243;-58
2022/07/31 09:06:33;;;;;;;14.18;7.53;;;20.70;99.90;;;;;;5031496;28;38170;-59
2022/07/31 09:09:01;;;;;;;12.50;7.78;;;20.70;99.90;;;;;;5032960;28;38145;-59
2022/07/31 09:11:29;;;;;;;14.00;8.13;;;20.70;99.90;;;;;;5032814;28;36781;-58
2022/07/31 09:13:59;;;;;;;16.60;9.30;;;20.60;99.90;;;;;;5033186;28;36557;-58
2022/07/31 09:16:27;;;;;;;12.48;8.60;;;20.60;99.90;;;;;;5031680;28;37645;-58
2022/07/31 09:18:56;;;;;;;13.07;8.60;;;20.50;99.90;;;;;;5033792;28;36500;-59
2022/07/31 09:21:24;;;;;;;16.65;9.35;;;20.50;99.90;;;;;;5033077;28;40171;-58
2022/07/31 09:23:53;;;;;;;13.65;9.30;;;20.40;99.90;;;;;;5025792;28;38244;-59
2022/07/31 09:26:33;;;;;;;11.93;8.88;;;20.40;99.90;;;;;;5023068;28;38813;-59
2022/07/31 09:29:02;;;;;;;14.77;9.90;;;20.40;99.90;;;;;;5027368;28;35556;-59
2022/07/31 09:31:33;;;;;;;17.75;10.80;;;20.40;99.90;;;;;;5030885;28;36797;-59
2022/07/31 09:34:01;;;;;;;12.52;9.13;;;20.30;99.90;;;;;;5028411;28;38886;-59
2022/07/31 09:36:28;;;;;;;15.48;11.32;;;20.30;99.90;;;;;;5028399;28;38005;-58
2022/07/31 09:38:56;;;;;;;15.63;10.63;;;20.30;99.90;;;;;;5030369;28;36239;-59
2022/07/31 09:41:25;;;;;;;14.98;11.90;;;20.30;99.90;;;;;;5031207;28;38720;-59
2022/07/31 09:43:56;;;;;;;14.75;11.32;;;20.20;99.90;;;;;;5030973;28;37102;-59
2022/07/31 09:46:23;;;;;;;16.35;11.48;;;20.20;99.90;;;;;;5033639;28;37233;-59
2022/07/31 09:48:51;;;;;;;17.85;12.40;;;20.20;99.90;;;;;;5034983;28;37339;-59
2022/07/31 09:51:19;;;;;;;19.55;13.20;;;20.20;99.90;;;;;;5034128;28;36330;-59
2022/07/31 09:53:51;;;;;;;20.02;12.65;;;20.20;99.90;;;;;;5035378;28;37848;-58
2022/07/31 09:56:31;;;;;;;14.77;12.85;;;20.10;99.90;;;;;;5033826;28;36079;-59
2022/07/31 09:58:59;;;;;;;22.15;13.02;;;20.10;99.90;;;;;;5035067;28;36384;-58
2022/07/31 10:01:27;;;;;;;16.45;12.77;;;20.10;99.90;;;;;;5034055;28;37087;-58
2022/07/31 10:03:58;;;;;;;17.60;12.30;;;20.10;99.90;;;;;;5033490;28;37860;-58
2022/07/31 10:06:27;;;;;;;16.23;12.30;;;20.10;99.90;;;;;;5034161;28;36056;-58
2022/07/31 10:08:55;;;;;;;17.75;13.02;;;20.10;99.90;;;;;;5035753;28;36938;-58
2022/07/31 10:11:24;;;;;;;18.90;13.63;;;20.10;99.90;;;;;;5033087;28;37717;-58
2022/07/31 10:13:56;;;;;;;16.42;13.27;;;20.10;99.90;;;;;;5046726;28;37999;-58
2022/07/31 10:16:27;;;;;;;19.02;14.13;;;20.10;99.90;;;;;;5053482;28;38724;-59
2022/07/31 10:18:59;;;;;;;17.75;13.63;;;20.10;99.90;;;;;;5055476;28;37106;-58
2022/07/31 10:21:33;;;;;;;16.27;11.80;;;20.10;99.90;;;;;;5054500;28;37836;-58
2022/07/31 10:24:02;;;;;;;19.92;13.75;;;20.10;99.90;;;;;;5055933;28;37597;-59
2022/07/31 10:26:30;;;;;;;20.60;14.85;;;20.20;99.90;;;;;;5053557;28;38314;-58
2022/07/31 10:28:59;;;;;;;18.30;14.45;;;20.10;99.90;;;;;;5054241;28;37622;-58
2022/07/31 10:31:27;;;;;;;18.10;12.32;;;20.20;99.90;;;;;;5052637;28;37631;-58
2022/07/31 10:33:55;;;;;;;18.38;13.52;;;20.10;99.90;;;;;;5050169;28;37918;-58
2022/07/31 10:36:27;;;;;;;17.20;12.90;;;20.10;99.90;;;;;;5054111;28;38091;-58
2022/07/31 10:39:01;;;;;;;17.73;12.70;;;20.10;99.90;;;;;;5051836;28;37549;-58
2022/07/31 10:41:37;;;;;;;17.88;14.40;;;20.00;99.90;;;;;;5053300;28;37829;-58
2022/07/31 10:44:16;;;;;;;20.13;14.02;;;20.10;99.90;;;;;;5055070;28;37957;-58
2022/07/31 10:46:44;;;;;;;14.63;11.93;;;20.00;99.90;;;;;;5053907;28;37889;-58
2022/07/31 10:49:11;;;;;;;17.80;13.07;;;20.00;99.90;;;;;;5051981;28;35583;-58
2022/07/31 10:51:46;;;;;;;17.10;12.32;;;20.00;99.90;;;;;;5053182;28;38953;-58
2022/07/31 10:54:14;;;;;;;17.52;13.57;;;20.00;99.90;;;;;;5053111;28;37214;-58
2022/07/31 10:56:43;;;;;;;16.75;12.90;;;20.00;99.90;;;;;;5054841;28;37481;-58
2022/07/31 10:59:12;;;;;;;15.70;12.20;;;20.00;99.90;;;;;;5053547;28;36665;-58
2022/07/31 11:01:50;;;;;;;17.02;12.80;;;19.90;99.90;;;;;;5052051;28;38345;-58
2022/07/31 11:04:27;;;;;;;13.80;10.63;;;20.00;99.90;;;;;;5052477;28;36495;-58
2022/07/31 11:06:54;;;;;;;13.82;9.68;;;20.00;99.90;;;;;;5053299;28;39961;-58
2022/07/31 11:09:23;;;;;;;14.13;11.00;;;20.00;99.90;;;;;;5054833;28;36698;-58
2022/07/31 11:11:51;;;;;;;14.35;11.50;;;19.90;99.90;;;;;;5053276;28;39326;-58
2022/07/31 11:14:31;;;;;;;14.93;12.52;;;19.90;99.90;;;;;;5053999;28;37689;-58
2022/07/31 11:16:58;;;;;;;20.30;15.15;;;19.90;99.90;;;;;;5054511;28;36263;-58
2022/07/31 11:19:36;;;;;;;17.58;14.10;;;19.90;99.90;;;;;;5049343;28;38820;-58
2022/07/31 11:22:10;;;;;;;18.23;13.45;;;19.90;99.90;;;;;;5052481;28;37055;-58
2022/07/31 11:24:37;;;;;;;17.10;13.38;;;19.90;99.90;;;;;;5052297;28;37450;-58
2022/07/31 11:27:06;;;;;;;17.55;13.98;;;19.90;99.90;;;;;;5053518;28;37392;-58
2022/07/31 11:29:36;;;;;;;16.70;13.32;;;19.90;99.90;;;;;;5050336;28;37347;-58
2022/07/31 11:32:21;;;;;;;20.30;13.65;;;19.90;99.90;;;;;;5049991;28;40271;-58
2022/07/31 11:34:50;;;;;;;14.00;12.48;;;19.80;99.90;;;;;;5051926;28;38631;-58
2022/07/31 11:37:19;;;;;;;16.10;13.52;;;19.90;99.90;;;;;;5051355;28;37543;-58
2022/07/31 11:39:47;;;;;;;24.88;15.23;;;19.90;99.90;;;;;;5048281;28;38091;-58
2022/07/31 11:42:14;;;;;;;17.15;14.52;;;19.80;99.90;;;;;;5050788;28;37605;-58
2022/07/31 11:44:43;;;;;;;14.38;11.98;;;19.80;99.90;;;;;;5052665;28;39191;-58
2022/07/31 11:47:10;;;;;;;17.15;14.07;;;19.80;99.90;;;;;;5049687;28;36139;-58
2022/07/31 11:49:38;;;;;;;16.77;14.05;;;19.80;99.90;;;;;;5051838;28;36775;-58
2022/07/31 11:52:08;;;;;;;16.75;12.82;;;19.70;99.90;;;;;;5051561;28;37340;-58
2022/07/31 11:54:36;;;;;;;17.25;14.05;;;19.70;99.90;;;;;;5051189;28;37918;-58
2022/07/31 11:57:04;;;;;;;16.35;12.43;;;19.70;99.90;;;;;;5050027;28;37663;-57
2022/07/31 11:59:32;;;;;;;20.27;14.55;;;19.60;99.90;;;;;;5051733;28;36833;-58
2022/07/31 12:02:05;;;;;;;16.77;13.15;;;19.60;99.90;;;;;;5051027;28;37364;-58
2022/07/31 12:04:35;;;;;;;19.52;14.80;;;19.60;99.90;;;;;;5049362;28;38293;-58
2022/07/31 12:07:03;;;;;;;17.25;14.05;;;19.60;99.90;;;;;;5051159;28;38237;-58
2022/07/31 12:09:31;;;;;;;20.15;14.40;;;19.60;99.90;;;;;;5050483;28;36843;-58
2022/07/31 12:11:58;;;;;;;18.17;14.68;;;19.50;99.90;;;;;;5051883;28;38354;-58
2022/07/31 12:14:31;;;;;;;20.48;15.07;;;19.50;99.90;;;;;;5024436;28;38102;-58
2022/07/31 12:16:59;;;;;;;18.83;14.82;;;19.50;99.90;;;;;;5021748;28;36917;-58
2022/07/31 12:19:29;;;;;;;17.55;14.30;;;19.50;99.90;;;;;;5026739;28;37241;-58
2022/07/31 12:21:57;;;;;;;17.83;14.13;;;19.50;99.90;;;;;;5026093;28;37794;-58
2022/07/31 12:24:24;;;;;;;19.55;16.23;;;19.60;99.90;;;;;;5025719;28;35811;-58
2022/07/31 12:26:54;;;;;;;16.17;13.23;;;19.60;99.90;;;;;;5021075;28;36824;-58
2022/07/31 12:29:31;;;;;;;13.90;11.75;;;19.50;99.90;;;;;;5021792;28;37274;-58
2022/07/31 12:31:59;;;;;;;15.48;12.65;;;19.50;99.90;;;;;;5023059;28;36397;-58
2022/07/31 12:34:29;;;;;;;16.65;12.65;;;19.60;99.90;;;;;;5020790;28;37903;-58
2022/07/31 12:37:00;;;;;;;13.02;10.88;;;19.60;99.90;;;;;;5023627;28;37220;-58
2022/07/31 12:39:28;;;;;;;13.18;10.48;;;19.60;99.90;;;;;;5024665;28;37466;-58
2022/07/31 12:41:55;;;;;;;13.00;10.63;;;19.60;99.90;;;;;;5029513;28;36551;-57
2022/07/31 12:44:23;;;;;;;14.20;10.50;;;19.60;99.90;;;;;;5032379;28;38245;-58
2022/07/31 12:46:50;;;;;;;12.73;9.73;;;19.60;99.90;;;;;;5021309;28;37396;-57
2022/07/31 12:49:18;;;;;;;16.30;10.20;;;19.60;99.90;;;;;;5029313;28;36910;-58
2022/07/31 12:51:47;;;;;;;14.55;11.40;;;19.60;99.90;;;;;;5026834;28;37802;-57